Colfax, North Carolina
Current Conditions -  °F | °C
As of 7:54 PM on Friday 24 Oct 2014 (Local Time) from KGSO Reporting Station
Broken Clouds Broken Clouds  
Wind Chill: 57°   Ceiling: 25000
Heat Index: 57°   Visibility: 10mi
Dew Point: 41°   Wind: 0mph
Humidity: 55%   Direction: NA
Pressure: 29.98"   Gusts: NA
Location:  36.11°N, 80.01°W
Report Text: KGSO 242354Z 00000KT 10SM SCT160 BKN250 14/05 A2998 RMK AO2 SLP149 T01390050 10206 20133 53001
Loading
Personal Weather Stations






























Interactive Weather Map
Tropical Storm Tracking
New forecast layout! Learn more

10-Day Weather Forecast

Advertisements
Track Severe Weather on mobile